Time;durP1;ratioP1;P1;durP2;ratioP2;P2;SDS_P1;SDS_P2;PMS_P1;PMS_P2;Temp;Humidity;BMP_temperature;BMP_pressure;BME280_temperature;BME280_humidity;BME280_pressure;Samples;Min_cycle;Max_cycle;Signal;HPM_P1;HPM_P2
2021/12/21 00:00:54;;;;;;;6.72;4.50;;;13.50;55.40;;;;;;4651184;30;20074;-73
2021/12/21 00:03:20;;;;;;;8.00;4.60;;;13.50;55.40;;;;;;4650568;30;20054;-73
2021/12/21 00:05:46;;;;;;;8.43;4.90;;;13.50;55.40;;;;;;4652267;30;20066;-72
2021/12/21 00:08:13;;;;;;;6.60;4.20;;;13.50;55.30;;;;;;4651354;30;20054;-72
2021/12/21 00:10:45;;;;;;;6.00;4.22;;;13.50;55.30;;;;;;4652138;30;20162;-72
2021/12/21 00:13:35;;;;;;;8.82;4.88;;;13.40;55.30;;;;;;4650987;30;20051;-73
2021/12/21 00:19:05;;;;;;;7.95;4.22;;;13.40;55.30;;;;;;4651927;30;20059;-74
2021/12/21 00:21:37;;;;;;;7.30;4.38;;;13.40;55.30;;;;;;4651724;30;20143;-73
2021/12/21 00:24:12;;;;;;;8.60;4.60;;;13.40;55.30;;;;;;4651221;30;20129;-71
2021/12/21 00:26:37;;;;;;;8.18;4.85;;;13.40;55.30;;;;;;4651239;30;20094;-73
2021/12/21 00:29:04;;;;;;;7.38;4.80;;;13.40;55.20;;;;;;4636516;30;20098;-72
2021/12/21 00:31:33;;;;;;;7.78;4.72;;;13.40;55.20;;;;;;4651040;30;20058;-73
2021/12/21 00:33:59;;;;;;;8.15;4.50;;;13.40;55.20;;;;;;4651569;30;20080;-73
2021/12/21 00:36:27;;;;;;;7.28;4.30;;;13.30;55.10;;;;;;4651345;30;20055;-72
2021/12/21 00:38:56;;;;;;;5.63;3.78;;;13.30;55.10;;;;;;4651382;30;20067;-73
2021/12/21 00:41:24;;;;;;;6.65;4.40;;;13.30;55.20;;;;;;4651117;30;20461;-72
2021/12/21 00:43:51;;;;;;;8.20;4.47;;;13.30;55.20;;;;;;4651632;30;20086;-72
2021/12/21 00:46:17;;;;;;;8.98;4.60;;;13.30;55.10;;;;;;4651159;30;20054;-73
2021/12/21 00:48:52;;;;;;;7.57;4.85;;;13.30;55.10;;;;;;4635976;30;20070;-74
2021/12/21 00:51:21;;;;;;;7.95;4.50;;;13.30;55.10;;;;;;4651157;30;20062;-72
2021/12/21 00:53:46;;;;;;;6.05;4.15;;;13.30;55.10;;;;;;4650874;30;20058;-73
2021/12/21 00:56:12;;;;;;;9.05;4.15;;;13.30;55.10;;;;;;4651468;30;20066;-73
2021/12/21 00:58:38;;;;;;;8.15;4.05;;;13.30;55.10;;;;;;4636139;30;20065;-73
2021/12/21 01:01:06;;;;;;;6.45;4.38;;;13.20;55.00;;;;;;4650804;30;20070;-72
2021/12/21 01:03:37;;;;;;;7.50;3.97;;;13.20;55.00;;;;;;4650916;30;20066;-73
2021/12/21 01:06:58;;;;;;;7.07;3.72;;;13.20;54.90;;;;;;4651171;30;20054;-74
2021/12/21 01:09:08;;;;;;;5.28;3.55;;;13.20;55.00;;;;;;4645684;30;20065;-73
2021/12/21 01:11:48;;;;;;;6.68;3.70;;;13.20;55.00;;;;;;4650839;30;20063;-72
2021/12/21 01:17:05;;;;;;;6.90;3.65;;;13.20;54.90;;;;;;4650686;30;20063;-73
2021/12/21 01:19:46;;;;;;;4.85;3.25;;;13.10;55.00;;;;;;4650711;30;20119;-73
2021/12/21 01:22:20;;;;;;;5.60;3.25;;;13.10;54.90;;;;;;4650850;30;20098;-74
2021/12/21 01:33:51;;;;;;;4.30;2.63;;;13.10;55.20;;;;;;4635228;30;19975;-72
2021/12/21 01:36:02;;;;;;;5.63;3.03;;;13.10;55.00;;;;;;4634522;30;20536;-73
2021/12/21 01:41:04;;;;;;;5.43;2.83;;;13.10;54.80;;;;;;4650083;30;20481;-73
2021/12/21 01:43:37;;;;;;;5.80;3.03;;;13.10;54.80;;;;;;4635157;30;20089;-73
2021/12/21 01:51:32;;;;;;;7.28;3.30;;;13.00;54.70;;;;;;4650558;30;20058;-72
2021/12/21 01:53:57;;;;;;;5.47;3.33;;;13.00;54.70;;;;;;4635485;30;20476;-72
2021/12/21 01:56:24;;;;;;;4.78;2.63;;;13.00;54.70;;;;;;4650087;30;20376;-71
2021/12/21 01:58:50;;;;;;;3.92;2.58;;;13.00;54.60;;;;;;4650358;30;20047;-72
2021/12/21 02:01:19;;;;;;;4.65;2.78;;;13.00;54.70;;;;;;4649948;30;20070;-73
2021/12/21 02:03:49;;;;;;;5.07;2.53;;;13.00;54.60;;;;;;4649785;30;20051;-72
2021/12/21 02:06:17;;;;;;;5.55;2.47;;;13.00;54.60;;;;;;4635495;30;20491;-73
2021/12/21 02:08:43;;;;;;;5.03;2.80;;;13.00;55.30;;;;;;4635836;30;20102;-73
2021/12/21 02:11:09;;;;;;;6.10;2.60;;;12.90;54.60;;;;;;4650105;30;20484;-73
2021/12/21 02:13:37;;;;;;;5.63;2.67;;;12.90;54.60;;;;;;4635249;30;20101;-73
2021/12/21 02:16:04;;;;;;;5.78;2.40;;;12.90;54.60;;;;;;4650960;30;20051;-73
2021/12/21 02:18:50;;;;;;;4.43;2.47;;;12.90;54.50;;;;;;4650885;30;20350;-73
2021/12/21 02:21:29;;;;;;;4.60;2.45;;;12.90;54.50;;;;;;4650630;30;20063;-72
2021/12/21 02:23:59;;;;;;;4.82;2.45;;;12.90;54.50;;;;;;4650302;30;20094;-72
2021/12/21 02:31:50;;;;;;;6.18;2.60;;;12.90;54.40;;;;;;4649551;30;20055;-74
2021/12/21 02:34:17;;;;;;;7.13;2.95;;;12.90;54.40;;;;;;4650500;30;20066;-73
2021/12/21 02:36:46;;;;;;;6.72;2.58;;;12.90;54.40;;;;;;4652860;30;20074;-72
2021/12/21 02:39:13;;;;;;;4.97;2.47;;;12.90;54.40;;;;;;4653078;30;20453;-72
2021/12/21 02:41:39;;;;;;;4.28;2.40;;;12.90;54.40;;;;;;4653452;30;20055;-74
2021/12/21 02:44:05;;;;;;;6.47;2.50;;;12.80;54.30;;;;;;4653054;30;20066;-73
2021/12/21 02:46:31;;;;;;;4.72;2.42;;;12.80;54.30;;;;;;4653100;30;20540;-73
2021/12/21 02:48:57;;;;;;;5.20;2.70;;;12.90;54.30;;;;;;4653140;30;20134;-72
2021/12/21 02:51:23;;;;;;;3.65;2.25;;;12.80;54.20;;;;;;4652588;30;20189;-73
2021/12/21 02:53:49;;;;;;;3.22;2.05;;;12.80;54.20;;;;;;4652898;30;20133;-73
2021/12/21 02:56:15;;;;;;;5.13;2.42;;;12.80;54.10;;;;;;4652916;30;20087;-73
2021/12/21 02:58:42;;;;;;;4.93;2.15;;;12.80;54.10;;;;;;4652503;30;20070;-73
2021/12/21 03:01:10;;;;;;;4.32;2.10;;;12.80;54.00;;;;;;4623685;30;20082;-72
2021/12/21 03:03:36;;;;;;;4.35;2.45;;;12.80;54.00;;;;;;4651709;30;20197;-73
2021/12/21 03:06:05;;;;;;;5.90;2.35;;;12.80;54.00;;;;;;4652720;30;20138;-72
2021/12/21 03:08:49;;;;;;;3.85;2.15;;;12.80;54.10;;;;;;4653335;30;20058;-72
2021/12/21 03:14:03;;;;;;;4.82;2.25;;;12.80;54.10;;;;;;4652358;30;20381;-73
2021/12/21 03:16:39;;;;;;;4.03;2.25;;;12.70;54.00;;;;;;4637661;30;20058;-73
2021/12/21 03:19:07;;;;;;;4.32;2.30;;;12.70;54.00;;;;;;4652800;30;20055;-74
2021/12/21 03:21:34;;;;;;;4.40;2.13;;;12.70;54.00;;;;;;4652683;30;20054;-72
2021/12/21 03:24:00;;;;;;;4.82;2.70;;;12.70;54.00;;;;;;4652256;30;20094;-73
2021/12/21 03:26:26;;;;;;;4.63;2.45;;;12.70;54.10;;;;;;4637844;30;20141;-73
2021/12/21 03:28:52;;;;;;;4.80;2.13;;;12.70;54.00;;;;;;4637428;30;20139;-73
2021/12/21 03:31:19;;;;;;;4.05;2.40;;;12.70;54.00;;;;;;4652361;30;20460;-73
2021/12/21 03:33:45;;;;;;;3.08;1.90;;;12.70;54.00;;;;;;4652037;30;20055;-72
2021/12/21 03:36:11;;;;;;;5.90;2.42;;;12.70;54.00;;;;;;4652210;30;20484;-72
2021/12/21 03:38:39;;;;;;;4.43;2.10;;;12.60;54.00;;;;;;4651983;30;20043;-72
2021/12/21 03:41:10;;;;;;;4.40;2.22;;;12.70;54.00;;;;;;4652031;30;20059;-72
2021/12/21 03:43:36;;;;;;;4.93;2.13;;;12.60;54.00;;;;;;4652355;30;20063;-73
2021/12/21 03:46:14;;;;;;;4.78;2.30;;;12.60;54.00;;;;;;4646939;30;20130;-73
2021/12/21 03:48:44;;;;;;;3.97;2.00;;;12.60;54.00;;;;;;4634786;31;20151;-73
2021/12/21 03:51:10;;;;;;;4.00;2.25;;;12.60;54.00;;;;;;4620407;31;20063;-74
2021/12/21 03:53:37;;;;;;;5.78;2.53;;;12.60;54.00;;;;;;4635054;31;20055;-73
2021/12/21 03:56:24;;;;;;;4.57;2.05;;;12.60;54.00;;;;;;4634953;31;20063;-73
2021/12/21 03:58:51;;;;;;;3.88;2.10;;;12.60;54.00;;;;;;4635137;31;20110;-72
2021/12/21 04:01:17;;;;;;;7.03;2.17;;;12.50;54.00;;;;;;4634706;31;20059;-72
2021/12/21 04:03:43;;;;;;;5.53;2.08;;;12.50;54.00;;;;;;4651129;30;20094;-73
2021/12/21 04:06:09;;;;;;;7.05;2.60;;;12.50;54.00;;;;;;4651623;30;20055;-73
2021/12/21 04:08:35;;;;;;;4.22;2.20;;;12.50;54.00;;;;;;4651770;30;20058;-73
2021/12/21 04:11:01;;;;;;;4.22;2.25;;;12.50;54.00;;;;;;4650914;30;20061;-73
2021/12/21 04:13:27;;;;;;;3.50;2.10;;;12.50;53.90;;;;;;4649245;30;20062;-73
2021/12/21 04:15:54;;;;;;;3.42;1.75;;;12.50;53.90;;;;;;4636093;30;20455;-72
2021/12/21 04:18:23;;;;;;;3.45;2.03;;;12.50;53.90;;;;;;4651269;30;20469;-72
2021/12/21 04:20:49;;;;;;;5.13;2.10;;;12.50;53.90;;;;;;4650988;30;20051;-72
2021/12/21 04:23:18;;;;;;;3.85;2.00;;;12.50;53.90;;;;;;4647738;30;20074;-73
2021/12/21 04:25:44;;;;;;;4.72;2.25;;;12.50;53.90;;;;;;4651018;30;20055;-73
2021/12/21 04:28:10;;;;;;;4.93;2.08;;;12.40;53.90;;;;;;4635797;30;20067;-73
2021/12/21 04:30:36;;;;;;;5.60;2.45;;;12.40;54.00;;;;;;4651016;30;20063;-73
2021/12/21 04:33:02;;;;;;;5.25;2.17;;;12.50;54.00;;;;;;4650748;30;20055;-72
2021/12/21 04:35:27;;;;;;;6.00;2.63;;;12.40;53.90;;;;;;4649575;30;20050;-72
2021/12/21 04:37:58;;;;;;;4.82;2.47;;;12.40;53.90;;;;;;4651280;30;20460;-73
2021/12/21 04:40:38;;;;;;;5.70;2.60;;;12.40;53.90;;;;;;4651199;30;20179;-72
2021/12/21 04:43:04;;;;;;;6.60;2.35;;;12.40;53.90;;;;;;4636212;30;20497;-72
2021/12/21 04:45:30;;;;;;;4.95;2.75;;;12.40;53.90;;;;;;4634089;31;20453;-72
2021/12/21 04:47:55;;;;;;;6.68;2.30;;;12.40;53.90;;;;;;4648413;30;20066;-71
2021/12/21 04:50:21;;;;;;;10.23;2.90;;;12.40;53.90;;;;;;4646110;30;20249;-70
2021/12/21 04:52:47;;;;;;;6.32;2.60;;;12.40;53.60;;;;;;4650275;30;20054;-70
2021/12/21 04:55:13;;;;;;;11.43;3.15;;;12.40;53.00;;;;;;4646739;30;20085;-70
2021/12/21 04:57:40;;;;;;;9.52;3.35;;;12.40;52.10;;;;;;4647674;30;20487;-69
2021/12/21 05:00:08;;;;;;;6.38;3.17;;;12.40;51.30;;;;;;4635463;30;20142;-70
2021/12/21 05:02:34;;;;;;;6.35;2.90;;;12.40;50.70;;;;;;4649535;30;20377;-70
2021/12/21 05:05:00;;;;;;;9.00;3.22;;;12.40;50.20;;;;;;4650412;30;20047;-70
2021/12/21 05:07:29;;;;;;;7.78;3.28;;;12.40;49.90;;;;;;4639934;30;20059;-68
2021/12/21 05:09:57;;;;;;;13.32;3.47;;;12.40;49.50;;;;;;4641363;30;20054;-73
2021/12/21 05:12:24;;;;;;;9.57;3.33;;;12.30;49.40;;;;;;4639338;30;20055;-71
2021/12/21 05:14:50;;;;;;;7.63;2.80;;;12.30;50.40;;;;;;4650345;30;20046;-72
2021/12/21 05:17:16;;;;;;;10.30;4.93;;;12.30;52.70;;;;;;4650254;30;20114;-71
2021/12/21 05:19:42;;;;;;;9.05;3.65;;;12.20;55.40;;;;;;4650474;30;20067;-72
2021/12/21 05:22:08;;;;;;;12.68;3.65;;;12.40;55.70;;;;;;4650477;30;20066;-71
2021/12/21 05:24:34;;;;;;;14.02;3.00;;;12.50;55.30;;;;;;4621006;30;20528;-72
2021/12/21 05:27:00;;;;;;;10.98;2.90;;;12.70;55.00;;;;;;4649068;30;20134;-74
2021/12/21 05:29:26;;;;;;;11.70;2.47;;;13.00;55.40;;;;;;4633229;30;20062;-71
2021/12/21 05:31:53;;;;;;;7.70;2.85;;;13.20;55.50;;;;;;4635261;30;20059;-72
2021/12/21 05:34:19;;;;;;;9.40;2.50;;;13.40;55.40;;;;;;4650057;30;20101;-71
2021/12/21 05:36:45;;;;;;;7.93;2.60;;;13.60;55.20;;;;;;4650277;30;20063;-71
2021/12/21 05:39:21;;;;;;;22.45;3.15;;;13.90;55.90;;;;;;4650030;30;20140;-72
2021/12/21 05:44:14;;;;;;;11.45;2.97;;;14.20;56.30;;;;;;4650022;30;20062;-71
2021/12/21 05:46:40;;;;;;;6.78;2.70;;;14.30;56.30;;;;;;4650098;30;20460;-71
2021/12/21 05:49:07;;;;;;;10.45;2.90;;;14.50;56.50;;;;;;4650274;30;20057;-73
2021/12/21 05:51:33;;;;;;;21.02;3.28;;;14.60;57.00;;;;;;4617230;31;20071;-72
2021/12/21 05:53:59;;;;;;;9.27;2.50;;;14.80;57.30;;;;;;4629292;30;20059;-72
2021/12/21 05:56:25;;;;;;;9.88;2.92;;;14.90;57.80;;;;;;4646767;30;20472;-73
2021/12/21 05:58:51;;;;;;;11.48;2.72;;;15.00;57.90;;;;;;4646508;30;20149;-73
2021/12/21 06:01:17;;;;;;;8.18;2.60;;;15.10;58.00;;;;;;4649459;30;20146;-73
2021/12/21 06:03:43;;;;;;;14.00;2.90;;;15.10;58.60;;;;;;4649015;30;20102;-73
2021/12/21 06:06:15;;;;;;;10.07;2.63;;;15.20;58.40;;;;;;4649839;30;20080;-75
2021/12/21 06:08:43;;;;;;;17.52;2.80;;;15.30;58.40;;;;;;4649790;30;20461;-72
2021/12/21 06:11:09;;;;;;;11.65;2.35;;;15.30;58.50;;;;;;4637464;30;20528;-75
2021/12/21 06:14:06;;;;;;;11.43;2.58;;;15.30;58.70;;;;;;4667013;30;20054;-74
2021/12/21 06:25:24;;;;;;;9.73;2.05;;;15.50;58.70;;;;;;4638234;30;20396;-74
2021/12/21 06:27:39;;;;;;;6.78;2.72;;;15.60;59.00;;;;;;4653031;30;20054;-73
2021/12/21 06:30:06;;;;;;;8.98;2.13;;;15.70;59.30;;;;;;4653607;30;20372;-74
2021/12/21 06:32:32;;;;;;;10.60;2.40;;;15.70;59.20;;;;;;4638233;30;20112;-73
2021/12/21 06:34:58;;;;;;;6.90;2.55;;;15.70;59.20;;;;;;4638380;30;20145;-75
2021/12/21 06:37:24;;;;;;;13.75;2.70;;;15.80;59.30;;;;;;4652856;30;20081;-74
2021/12/21 06:39:50;;;;;;;7.13;2.33;;;15.90;59.30;;;;;;4652370;30;20071;-74
2021/12/21 06:42:16;;;;;;;9.00;2.47;;;15.90;59.30;;;;;;4652430;30;20078;-74
2021/12/21 06:44:44;;;;;;;8.57;2.00;;;15.90;59.40;;;;;;4637876;30;20126;-72
2021/12/21 06:52:40;;;;;;;27.23;2.45;;;16.00;59.40;;;;;;4652626;30;20128;-73
2021/12/21 06:55:13;;;;;;;11.07;2.50;;;16.00;59.40;;;;;;4649511;30;20432;-78
2021/12/21 06:57:43;;;;;;;12.02;2.47;;;16.00;59.60;;;;;;4649634;30;20094;-74
2021/12/21 07:00:15;;;;;;;11.65;2.40;;;16.10;59.50;;;;;;4652558;30;20067;-73
2021/12/21 07:02:42;;;;;;;11.15;2.28;;;16.10;58.70;;;;;;4642053;30;20059;-74
2021/12/21 07:05:10;;;;;;;10.70;2.15;;;16.10;59.00;;;;;;4636944;30;20816;-75
2021/12/21 07:07:37;;;;;;;8.35;2.25;;;16.20;59.00;;;;;;4639286;30;20058;-76
2021/12/21 07:10:08;;;;;;;9.30;1.77;;;16.20;58.90;;;;;;4648971;30;20110;-70
2021/12/21 07:20:28;;;;;;;8.88;2.38;;;16.40;58.00;;;;;;4620672;31;20063;-75
2021/12/21 07:22:54;;;;;;;8.10;2.50;;;16.40;57.40;;;;;;4620594;31;20058;-74
2021/12/21 07:25:20;;;;;;;7.38;2.60;;;16.40;57.10;;;;;;4620850;31;20055;-76
2021/12/21 07:27:45;;;;;;;14.52;2.90;;;16.50;56.80;;;;;;4634961;31;20194;-75
2021/12/21 07:30:11;;;;;;;12.82;3.92;;;16.50;56.40;;;;;;4636532;30;20083;-75
2021/12/21 07:32:37;;;;;;;11.18;2.88;;;16.50;56.40;;;;;;4652498;30;20055;-75
2021/12/21 07:35:04;;;;;;;15.98;4.57;;;16.50;56.70;;;;;;4652716;30;20066;-76
2021/12/21 07:37:29;;;;;;;17.38;5.55;;;16.60;55.70;;;;;;4610055;31;20055;-75
2021/12/21 07:39:55;;;;;;;12.60;4.72;;;16.60;53.70;;;;;;4635405;31;20066;-76
2021/12/21 07:42:21;;;;;;;11.23;4.10;;;16.60;53.20;;;;;;4620514;31;20063;-75
2021/12/21 07:44:53;;;;;;;14.02;4.57;;;16.70;53.40;;;;;;4620584;31;20059;-77
2021/12/21 07:47:19;;;;;;;10.02;4.07;;;16.80;53.60;;;;;;4635396;31;20055;-74
2021/12/21 07:49:45;;;;;;;13.40;4.00;;;16.80;53.90;;;;;;4619896;31;20055;-74
2021/12/21 07:52:12;;;;;;;14.52;3.83;;;16.80;54.30;;;;;;4606667;31;20347;-72
2021/12/21 07:54:37;;;;;;;20.50;4.93;;;16.90;54.30;;;;;;4635280;31;20103;-74
2021/12/21 07:57:08;;;;;;;18.73;4.47;;;16.90;54.50;;;;;;4635564;30;20099;-75
2021/12/21 07:59:35;;;;;;;22.25;4.88;;;16.90;53.90;;;;;;4651520;30;20059;-76
2021/12/21 08:02:01;;;;;;;21.85;5.10;;;16.90;54.00;;;;;;4651953;30;20090;-76
2021/12/21 08:04:28;;;;;;;21.65;5.22;;;16.80;53.90;;;;;;4651785;30;20047;-75
2021/12/21 08:06:59;;;;;;;16.00;4.85;;;16.80;54.20;;;;;;4636131;30;20059;-71
2021/12/21 08:09:36;;;;;;;20.38;5.97;;;16.70;54.30;;;;;;4651402;30;20142;-73
2021/12/21 08:14:36;;;;;;;26.13;6.00;;;16.50;55.10;;;;;;4636967;30;20063;-73
2021/12/21 08:17:02;;;;;;;21.92;6.15;;;16.40;55.80;;;;;;4651674;30;20497;-71
2021/12/21 08:19:28;;;;;;;21.77;6.00;;;16.30;56.00;;;;;;4651778;30;20057;-73
2021/12/21 08:21:53;;;;;;;21.98;5.30;;;16.30;56.10;;;;;;4651589;30;20133;-73
2021/12/21 08:24:19;;;;;;;19.35;5.30;;;16.20;56.30;;;;;;4650479;30;20051;-73
2021/12/21 08:26:45;;;;;;;22.48;6.32;;;16.10;56.40;;;;;;4651439;30;20452;-71
2021/12/21 08:29:11;;;;;;;21.58;6.03;;;16.00;56.50;;;;;;4651594;30;20138;-71
2021/12/21 08:31:36;;;;;;;29.75;6.05;;;15.90;56.50;;;;;;4634951;30;20054;-71
2021/12/21 08:34:02;;;;;;;23.55;6.30;;;15.90;56.80;;;;;;4646900;30;20071;-73
2021/12/21 08:36:28;;;;;;;19.58;6.60;;;15.80;57.20;;;;;;4650378;30;20065;-72
2021/12/21 08:38:54;;;;;;;23.85;6.50;;;15.80;56.90;;;;;;4634719;30;20074;-71
2021/12/21 08:41:22;;;;;;;24.58;6.70;;;15.70;56.30;;;;;;4634770;31;20059;-71
2021/12/21 08:43:48;;;;;;;21.35;5.82;;;15.60;55.90;;;;;;4634852;31;20170;-72
2021/12/21 08:46:14;;;;;;;13.75;5.13;;;15.50;55.70;;;;;;4634337;31;20369;-70
2021/12/21 08:48:39;;;;;;;23.48;6.28;;;15.50;55.60;;;;;;4634226;31;20055;-72
2021/12/21 08:51:06;;;;;;;13.50;5.68;;;15.40;55.50;;;;;;4634271;31;20082;-72
2021/12/21 08:53:33;;;;;;;17.42;5.78;;;15.40;55.10;;;;;;4621041;30;20062;-71
2021/12/21 08:55:59;;;;;;;17.05;5.38;;;15.40;54.90;;;;;;4650618;30;20066;-71
2021/12/21 08:58:25;;;;;;;13.55;5.53;;;15.30;54.50;;;;;;4651409;30;20055;-72
2021/12/21 09:00:53;;;;;;;15.57;5.25;;;15.30;54.50;;;;;;4651004;30;20078;-71
2021/12/21 09:03:20;;;;;;;10.45;4.57;;;15.30;54.50;;;;;;4651036;30;20054;-72
2021/12/21 09:05:46;;;;;;;11.25;4.90;;;15.20;54.40;;;;;;4650908;30;20500;-71
2021/12/21 09:08:12;;;;;;;14.65;5.13;;;15.20;54.70;;;;;;4650532;30;20380;-72
2021/12/21 09:10:41;;;;;;;10.80;4.75;;;15.20;54.60;;;;;;4650672;30;20058;-71
2021/12/21 09:13:09;;;;;;;11.65;4.43;;;15.10;54.40;;;;;;4650990;30;20138;-71
2021/12/21 09:15:35;;;;;;;15.25;4.93;;;15.10;54.50;;;;;;4635862;30;20146;-70
2021/12/21 09:18:01;;;;;;;12.40;5.10;;;15.10;54.60;;;;;;4621607;30;20077;-72
2021/12/21 09:20:29;;;;;;;12.55;4.80;;;15.10;54.70;;;;;;4651138;30;20498;-72
2021/12/21 09:22:56;;;;;;;12.57;4.88;;;15.10;54.80;;;;;;4635385;30;20457;-73
2021/12/21 09:25:23;;;;;;;10.93;4.25;;;15.10;54.80;;;;;;4635668;30;20070;-71
2021/12/21 09:27:49;;;;;;;9.65;4.82;;;15.10;54.90;;;;;;4650526;30;20543;-71
2021/12/21 09:30:17;;;;;;;10.57;4.63;;;15.10;54.90;;;;;;4650577;30;20070;-71
2021/12/21 09:32:44;;;;;;;10.35;4.95;;;15.10;54.90;;;;;;4651104;30;20404;-71
2021/12/21 09:35:10;;;;;;;7.85;3.78;;;15.10;55.00;;;;;;4650798;30;20055;-72
2021/12/21 09:37:37;;;;;;;12.73;4.30;;;15.00;55.10;;;;;;4650568;30;20479;-71
2021/12/21 09:40:07;;;;;;;8.32;4.07;;;15.00;55.20;;;;;;4650991;30;20067;-72
2021/12/21 09:42:33;;;;;;;8.85;4.55;;;15.00;55.90;;;;;;4646949;30;20058;-72
2021/12/21 09:45:00;;;;;;;6.53;3.72;;;15.00;55.30;;;;;;4636313;30;20071;-71
2021/12/21 09:47:27;;;;;;;8.48;3.90;;;15.00;55.40;;;;;;4653984;30;20476;-71
2021/12/21 09:49:54;;;;;;;9.27;4.15;;;15.00;55.50;;;;;;4638961;30;20055;-72
2021/12/21 09:52:22;;;;;;;6.68;3.15;;;14.90;55.60;;;;;;4654162;30;20058;-71
2021/12/21 09:54:49;;;;;;;7.70;4.25;;;14.90;55.60;;;;;;4653617;30;20062;-70
2021/12/21 09:57:17;;;;;;;8.38;3.55;;;14.90;55.70;;;;;;4653637;30;20086;-72
2021/12/21 09:59:44;;;;;;;5.50;3.10;;;14.90;55.70;;;;;;4654256;30;20055;-71
2021/12/21 10:02:10;;;;;;;5.63;3.33;;;14.90;55.70;;;;;;4652985;30;20047;-72
2021/12/21 10:05:07;;;;;;;5.65;2.88;;;14.90;55.70;;;;;;4639422;30;20117;-71
2021/12/21 10:07:34;;;;;;;9.70;3.22;;;14.90;55.80;;;;;;4646564;30;20082;-70
2021/12/21 10:10:15;;;;;;;6.03;3.00;;;14.90;55.90;;;;;;4653548;30;20046;-72
2021/12/21 10:12:44;;;;;;;4.78;3.05;;;14.90;55.90;;;;;;4638833;30;20066;-70
2021/12/21 10:15:17;;;;;;;6.13;3.05;;;14.90;55.90;;;;;;4639287;30;20078;-71
2021/12/21 10:17:57;;;;;;;7.97;3.40;;;14.90;55.90;;;;;;4638573;30;20443;-71
2021/12/21 10:20:38;;;;;;;6.63;3.30;;;15.00;55.90;;;;;;4624633;30;20055;-71
2021/12/21 10:23:13;;;;;;;5.32;2.75;;;14.90;55.90;;;;;;4653329;30;20126;-72
2021/12/21 10:25:58;;;;;;;7.15;3.28;;;14.90;56.70;;;;;;4653488;30;20054;-70
2021/12/21 10:28:59;;;;;;;5.20;2.75;;;15.00;56.00;;;;;;4652999;30;20070;-72
2021/12/21 10:31:36;;;;;;;10.45;3.25;;;15.00;56.00;;;;;;4633779;30;20082;-72
2021/12/21 10:34:05;;;;;;;5.22;2.90;;;15.00;56.00;;;;;;4636005;31;20120;-72
2021/12/21 10:36:39;;;;;;;5.05;2.40;;;15.00;56.00;;;;;;4635559;31;20094;-71
2021/12/21 10:39:05;;;;;;;4.28;2.88;;;15.00;56.20;;;;;;4636344;31;20107;-72
2021/12/21 10:41:41;;;;;;;8.02;2.95;;;15.00;56.30;;;;;;4636401;31;20085;-72
2021/12/21 10:44:14;;;;;;;5.97;2.70;;;15.00;56.20;;;;;;4621507;31;20484;-70
2021/12/21 10:46:45;;;;;;;5.95;2.60;;;15.00;56.10;;;;;;4636149;31;20059;-72
2021/12/21 10:49:12;;;;;;;6.20;2.78;;;15.00;56.20;;;;;;4636123;31;20055;-72
2021/12/21 10:51:51;;;;;;;6.82;2.95;;;15.00;56.30;;;;;;4635889;31;20059;-72
2021/12/21 10:54:32;;;;;;;4.93;2.80;;;15.00;56.30;;;;;;4636030;31;20067;-71
2021/12/21 10:57:04;;;;;;;5.80;3.00;;;15.00;56.30;;;;;;4635335;31;20059;-71
2021/12/21 10:59:36;;;;;;;5.00;2.50;;;15.00;56.30;;;;;;4635839;31;20055;-71
2021/12/21 11:02:17;;;;;;;5.28;2.58;;;15.00;56.20;;;;;;4641816;30;20194;-70
2021/12/21 11:04:46;;;;;;;4.78;2.47;;;15.00;56.30;;;;;;4653333;30;20077;-70
2021/12/21 11:07:39;;;;;;;4.93;2.42;;;15.00;56.40;;;;;;4652528;30;20058;-72
2021/12/21 11:10:11;;;;;;;4.97;2.15;;;15.00;56.40;;;;;;4652751;30;20094;-71
2021/12/21 11:12:57;;;;;;;6.45;2.92;;;14.90;56.40;;;;;;4637784;30;20134;-72
2021/12/21 11:15:32;;;;;;;6.18;2.50;;;15.00;56.40;;;;;;4652445;30;20132;-71
2021/12/21 11:18:00;;;;;;;5.00;2.55;;;14.90;56.40;;;;;;4624096;30;20464;-71
2021/12/21 11:20:26;;;;;;;3.97;2.45;;;15.00;56.40;;;;;;4652527;30;20058;-72
2021/12/21 11:22:53;;;;;;;4.60;2.35;;;15.00;56.50;;;;;;4652625;30;20070;-71
2021/12/21 11:25:19;;;;;;;4.57;2.45;;;14.90;56.50;;;;;;4652636;30;20468;-71
2021/12/21 11:27:46;;;;;;;5.25;2.25;;;14.90;56.50;;;;;;4652594;30;20051;-71
2021/12/21 11:30:19;;;;;;;5.28;2.55;;;14.90;56.50;;;;;;4652173;30;20485;-71
2021/12/21 11:32:49;;;;;;;6.57;2.58;;;14.90;56.40;;;;;;4652097;30;20097;-72
2021/12/21 11:37:49;;;;;;;5.90;2.42;;;14.90;56.50;;;;;;4637190;30;20062;-71
2021/12/21 11:40:19;;;;;;;4.82;2.22;;;14.90;56.60;;;;;;4652575;30;20070;-72
2021/12/21 11:42:51;;;;;;;4.63;1.98;;;14.90;56.60;;;;;;4652082;30;20161;-71
2021/12/21 11:45:32;;;;;;;3.83;2.00;;;14.90;56.50;;;;;;4652011;30;20055;-71
2021/12/21 11:48:19;;;;;;;4.50;2.10;;;14.90;56.50;;;;;;4652175;30;20059;-72
2021/12/21 11:50:48;;;;;;;4.63;2.15;;;14.90;56.40;;;;;;4637440;30;20420;-72
2021/12/21 11:53:17;;;;;;;2.83;1.65;;;14.90;56.60;;;;;;4651665;30;20476;-72
2021/12/21 11:55:47;;;;;;;5.43;2.17;;;14.90;57.30;;;;;;4652261;30;20364;-71
2021/12/21 11:58:23;;;;;;;3.60;2.03;;;14.90;56.70;;;;;;4651806;30;20070;-71
2021/12/21 12:01:12;;;;;;;4.07;1.75;;;14.90;56.70;;;;;;4636507;30;20467;-71
2021/12/21 12:03:44;;;;;;;3.50;1.95;;;14.90;56.60;;;;;;4636522;30;20063;-72
2021/12/21 12:06:15;;;;;;;3.20;2.00;;;14.80;56.60;;;;;;4651725;30;20499;-71
2021/12/21 12:08:41;;;;;;;5.25;1.70;;;14.90;56.70;;;;;;4650365;30;20066;-71
2021/12/21 12:11:07;;;;;;;4.70;1.60;;;14.90;56.80;;;;;;4651397;30;20059;-74
2021/12/21 12:13:36;;;;;;;4.38;1.90;;;14.80;56.70;;;;;;4651438;30;20059;-71
2021/12/21 12:16:08;;;;;;;3.72;1.80;;;14.80;56.70;;;;;;4651560;30;20054;-71
2021/12/21 12:18:40;;;;;;;4.03;1.92;;;14.80;56.70;;;;;;4636745;30;20066;-72
2021/12/21 12:21:22;;;;;;;3.63;1.60;;;14.80;56.70;;;;;;4636163;30;20055;-71
2021/12/21 12:23:53;;;;;;;3.15;1.80;;;14.90;56.70;;;;;;4651237;30;20209;-72
2021/12/21 12:26:31;;;;;;;3.67;1.85;;;14.90;56.80;;;;;;4637228;30;20065;-72
2021/12/21 12:29:12;;;;;;;3.60;1.75;;;14.90;56.80;;;;;;4651256;30;20069;-72
2021/12/21 12:31:40;;;;;;;2.40;1.45;;;14.90;56.70;;;;;;4622933;30;20062;-72
2021/12/21 12:34:06;;;;;;;4.32;1.80;;;14.90;56.70;;;;;;4650610;30;20149;-72
2021/12/21 12:36:47;;;;;;;3.47;1.65;;;14.90;56.70;;;;;;4651244;30;20486;-72
2021/12/21 12:39:39;;;;;;;4.53;2.10;;;14.90;56.70;;;;;;4636437;30;20059;-71
2021/12/21 12:42:10;;;;;;;3.83;1.67;;;14.90;56.60;;;;;;4651119;30;20137;-72
2021/12/21 12:44:38;;;;;;;2.65;1.50;;;14.90;56.70;;;;;;4650685;30;20472;-72
2021/12/21 12:47:07;;;;;;;5.00;1.55;;;14.90;56.70;;;;;;4651328;30;20059;-72
2021/12/21 12:49:35;;;;;;;3.10;1.13;;;14.90;56.70;;;;;;4635919;30;20059;-72
2021/12/21 12:52:17;;;;;;;3.70;1.67;;;14.90;56.70;;;;;;4651061;30;20464;-72
2021/12/21 12:54:51;;;;;;;3.17;1.73;;;14.90;56.70;;;;;;4650827;30;20062;-71
2021/12/21 12:57:26;;;;;;;3.08;1.85;;;14.90;56.80;;;;;;4650660;30;20063;-71
2021/12/21 12:59:55;;;;;;;2.70;1.45;;;14.90;56.80;;;;;;4650836;30;20067;-72
2021/12/21 13:02:23;;;;;;;3.88;1.60;;;14.90;56.90;;;;;;4650655;30;20110;-70
2021/12/21 13:04:49;;;;;;;4.82;1.88;;;14.90;56.80;;;;;;4635944;30;20086;-72
2021/12/21 13:07:26;;;;;;;3.22;1.42;;;14.90;56.80;;;;;;4650473;30;20105;-72
2021/12/21 13:10:08;;;;;;;3.95;1.83;;;14.90;56.80;;;;;;4650295;30;20070;-71
2021/12/21 13:12:35;;;;;;;3.63;1.67;;;14.90;56.80;;;;;;4635899;30;20063;-72
2021/12/21 13:15:01;;;;;;;3.72;1.50;;;14.90;56.90;;;;;;4650595;30;20050;-71
2021/12/21 13:17:28;;;;;;;3.08;1.20;;;14.90;56.90;;;;;;4635474;30;20055;-72
2021/12/21 13:19:54;;;;;;;3.20;1.30;;;15.00;56.90;;;;;;4650402;30;20373;-71
2021/12/21 13:22:27;;;;;;;4.57;1.88;;;15.00;56.90;;;;;;4650282;30;20051;-71
2021/12/21 13:24:54;;;;;;;2.67;1.58;;;14.90;56.90;;;;;;4635705;30;20122;-72
2021/12/21 13:27:24;;;;;;;6.72;1.50;;;15.00;57.00;;;;;;4635512;30;20499;-71
2021/12/21 13:29:52;;;;;;;7.95;1.83;;;15.00;56.80;;;;;;4650556;30;20377;-72
2021/12/21 13:32:20;;;;;;;15.40;2.15;;;15.00;56.50;;;;;;4649956;30;20063;-74
2021/12/21 13:34:52;;;;;;;7.90;2.28;;;15.00;56.50;;;;;;4648031;30;20133;-73
2021/12/21 13:37:19;;;;;;;15.60;2.45;;;15.00;56.60;;;;;;4633876;30;20147;-72
2021/12/21 13:39:49;;;;;;;7.13;1.73;;;15.00;57.10;;;;;;4650105;30;20070;-72
2021/12/21 13:42:21;;;;;;;13.25;2.28;;;15.00;57.60;;;;;;4650378;30;20058;-72
2021/12/21 13:44:53;;;;;;;9.18;1.80;;;15.10;57.90;;;;;;4648206;30;20050;-72
2021/12/21 13:47:21;;;;;;;13.23;2.00;;;15.10;58.30;;;;;;4649536;30;20396;-72
2021/12/21 13:50:05;;;;;;;10.93;2.60;;;15.10;58.30;;;;;;4646741;30;20395;-74
2021/12/21 13:52:46;;;;;;;5.32;1.90;;;15.20;58.70;;;;;;4647180;30;20063;-75
2021/12/21 13:55:40;;;;;;;17.05;2.67;;;15.30;58.90;;;;;;4648768;30;20070;-72